Time;durP1;ratioP1;P1;durP2;ratioP2;P2;SDS_P1;SDS_P2;PMS_P1;PMS_P2;Temp;Humidity;BMP_temperature;BMP_pressure;BME280_temperature;BME280_humidity;BME280_pressure;Samples;Min_cycle;Max_cycle;Signal;HPM_P1;HPM_P2
2022/10/25 00:00:36;;;;;;;;;;;18.80;93.40;;;;;;5115553;28;20006;-43
2022/10/25 00:03:01;;;;;;;;;;;18.80;93.40;;;;;;5115632;28;19923;-42
2022/10/25 00:05:27;;;;;;;;;;;18.80;93.40;;;;;;5115389;28;19912;-44
2022/10/25 00:07:52;;;;;;;;;;;18.70;93.50;;;;;;5115537;28;19920;-43
2022/10/25 00:10:18;;;;;;;;;;;18.70;93.50;;;;;;5114348;28;19958;-42
2022/10/25 00:12:44;;;;;;;;;;;18.70;93.50;;;;;;5115180;28;19911;-43
2022/10/25 00:15:11;;;;;;;;;;;18.70;93.50;;;;;;5115467;28;19907;-43
2022/10/25 00:17:37;;;;;;;;;;;18.70;93.50;;;;;;5115465;28;19914;-43
2022/10/25 00:20:03;;;;;;;;;;;18.70;93.50;;;;;;5115267;28;19907;-41
2022/10/25 00:22:29;;;;;;;;;;;18.70;93.50;;;;;;5114998;28;19969;-44
2022/10/25 00:24:54;;;;;;;;;;;18.70;93.40;;;;;;5115223;28;19907;-46
2022/10/25 00:27:20;;;;;;;;;;;18.70;93.40;;;;;;5115284;28;20363;-43
2022/10/25 00:29:45;;;;;;;;;;;18.80;93.40;;;;;;5115036;28;19908;-44
2022/10/25 00:32:10;;;;;;;;;;;18.80;93.40;;;;;;5114923;28;19908;-43
2022/10/25 00:34:38;;;;;;;;;;;18.80;93.40;;;;;;5115180;28;19912;-42
2022/10/25 00:37:04;;;;;;;;;;;18.70;93.40;;;;;;5115105;28;19919;-44
2022/10/25 00:39:29;;;;;;;;;;;18.80;93.40;;;;;;5114985;28;19912;-43
2022/10/25 00:41:56;;;;;;;;;;;18.80;93.40;;;;;;5114898;28;20014;-42
2022/10/25 00:44:39;;;;;;;;;;;18.80;93.30;;;;;;5114664;28;20370;-42
2022/10/25 00:47:10;;;;;;;;;;;18.80;93.30;;;;;;5114841;28;20459;-42
2022/10/25 00:49:36;;;;;;;;;;;18.80;93.30;;;;;;5114823;28;19910;-42
2022/10/25 00:52:03;;;;;;;;;;;18.80;93.30;;;;;;5114890;28;20303;-41
2022/10/25 00:54:31;;;;;;;;;;;18.80;93.20;;;;;;5114870;28;19912;-43
2022/10/25 00:56:58;;;;;;;;;;;18.80;93.20;;;;;;5114782;28;19911;-41
2022/10/25 00:59:25;;;;;;;;;;;18.80;93.30;;;;;;5114526;28;20347;-41
2022/10/25 01:01:52;;;;;;;;;;;18.80;93.30;;;;;;5114613;28;19916;-43
2022/10/25 01:04:19;;;;;;;;;;;18.80;93.30;;;;;;5114904;28;19947;-43
2022/10/25 01:06:46;;;;;;;;;;;18.90;93.30;;;;;;5114531;28;19919;-42
2022/10/25 01:09:14;;;;;;;;;;;18.80;93.20;;;;;;5114477;28;20358;-44
2022/10/25 01:11:39;;;;;;;;;;;18.80;93.20;;;;;;5096310;28;20366;-41
2022/10/25 01:14:06;;;;;;;;;;;18.80;93.30;;;;;;5114220;28;19922;-42
2022/10/25 01:16:43;;;;;;;;;;;18.80;93.30;;;;;;5114241;28;19908;-42
2022/10/25 01:19:27;;;;;;;;;;;18.80;93.30;;;;;;5114171;28;20362;-42
2022/10/25 01:21:57;;;;;;;;;;;18.80;93.30;;;;;;5114698;28;19915;-41
2022/10/25 01:24:43;;;;;;;;;;;18.80;93.30;;;;;;5114078;28;19907;-44
2022/10/25 01:27:26;;;;;;;;;;;18.80;93.40;;;;;;5114168;28;19915;-42
2022/10/25 01:29:54;;;;;;;;;;;18.80;93.40;;;;;;5119884;28;19908;-42
2022/10/25 01:32:24;;;;;;;;;;;18.80;93.40;;;;;;5119934;28;20376;-42
2022/10/25 01:34:54;;;;;;;;;;;18.80;93.40;;;;;;5120912;28;20002;-41
2022/10/25 01:37:28;;;;;;;;;;;18.80;93.40;;;;;;5120934;28;19914;-41
2022/10/25 01:39:58;;;;;;;;;;;18.70;93.40;;;;;;5102857;28;19908;-42
2022/10/25 01:42:43;;;;;;;;;;;18.80;93.40;;;;;;5120897;28;19927;-41
2022/10/25 01:45:19;;;;;;;;;;;18.80;93.40;;;;;;5120848;28;20282;-44
2022/10/25 01:47:54;;;;;;;;;;;18.80;93.40;;;;;;5120801;28;19957;-43
2022/10/25 01:50:34;;;;;;;;;;;18.80;93.40;;;;;;5120730;28;19908;-43
2022/10/25 01:53:00;;;;;;;;;;;18.80;93.40;;;;;;5120816;28;19930;-42
2022/10/25 01:55:48;;;;;;;;;;;18.70;93.50;;;;;;5120786;28;20366;-41
2022/10/25 01:58:16;;;;;;;;;;;18.80;93.50;;;;;;5120483;28;19919;-44
2022/10/25 02:01:08;;;;;;;;;;;18.70;93.50;;;;;;5121015;28;19912;-44
2022/10/25 02:03:41;;;;;;;;;;;18.70;93.50;;;;;;5096537;28;19926;-42
2022/10/25 02:06:23;;;;;;;;;;;18.70;93.70;;;;;;5120598;28;20001;-42
2022/10/25 02:08:59;;;;;;;;;;;18.70;93.50;;;;;;5120609;28;19923;-45
2022/10/25 02:11:29;;;;;;;;;;;18.70;93.50;;;;;;5120472;28;19919;-43
2022/10/25 02:13:57;;;;;;;;;;;18.70;93.50;;;;;;5120701;28;19955;-42
2022/10/25 02:16:24;;;;;;;;;;;18.70;93.50;;;;;;5121132;28;20396;-43
2022/10/25 02:18:52;;;;;;;;;;;18.70;93.60;;;;;;5120649;28;19954;-43
2022/10/25 02:21:19;;;;;;;;;;;18.70;93.60;;;;;;5119983;28;20284;-44
2022/10/25 02:23:46;;;;;;;;;;;18.70;93.50;;;;;;5120281;28;19999;-41
2022/10/25 02:26:13;;;;;;;;;;;18.70;93.50;;;;;;5120709;28;19911;-43
2022/10/25 02:28:39;;;;;;;;;;;18.70;93.50;;;;;;5121055;28;19914;-44
2022/10/25 02:31:08;;;;;;;;;;;18.70;93.50;;;;;;5120643;28;19908;-43
2022/10/25 02:33:34;;;;;;;;;;;18.80;93.50;;;;;;5120633;28;19915;-44
2022/10/25 02:36:06;;;;;;;;;;;18.70;93.50;;;;;;5120704;28;20294;-42
2022/10/25 02:38:32;;;;;;;;;;;18.80;93.40;;;;;;5120595;28;19908;-45
2022/10/25 02:40:59;;;;;;;;;;;18.80;93.40;;;;;;5117016;28;19912;-42
2022/10/25 02:43:24;;;;;;;;;;;18.80;93.40;;;;;;5117072;28;19930;-41
2022/10/25 02:45:49;;;;;;;;;;;18.80;93.40;;;;;;5117005;28;19915;-41
2022/10/25 02:48:15;;;;;;;;;;;18.80;93.30;;;;;;5116995;28;19907;-43
2022/10/25 02:50:40;;;;;;;;;;;18.80;93.30;;;;;;5115929;28;19908;-43
2022/10/25 02:53:06;;;;;;;;;;;18.80;93.30;;;;;;5117164;28;20266;-43
2022/10/25 02:55:31;;;;;;;;;;;18.80;93.30;;;;;;5117045;28;20010;-42
2022/10/25 02:57:57;;;;;;;;;;;18.80;93.30;;;;;;5116875;28;19961;-43
2022/10/25 03:00:23;;;;;;;;;;;18.80;93.20;;;;;;5117103;28;19918;-44
2022/10/25 03:02:48;;;;;;;;;;;18.90;93.30;;;;;;5116645;28;19915;-43
2022/10/25 03:05:14;;;;;;;;;;;18.90;93.30;;;;;;5116959;28;19923;-42
2022/10/25 03:07:39;;;;;;;;;;;18.90;93.30;;;;;;5116801;28;19919;-42
2022/10/25 03:10:05;;;;;;;;;;;18.90;93.30;;;;;;5115489;28;19918;-43
2022/10/25 03:12:31;;;;;;;;;;;18.90;93.20;;;;;;5116415;28;19918;-45
2022/10/25 03:14:56;;;;;;;;;;;18.90;93.50;;;;;;5116700;28;19908;-42
2022/10/25 03:17:21;;;;;;;;;;;18.90;93.30;;;;;;5116346;28;19911;-41
2022/10/25 03:19:47;;;;;;;;;;;18.80;93.30;;;;;;5116359;28;19918;-41
2022/10/25 03:22:12;;;;;;;;;;;18.80;93.30;;;;;;5115228;28;20040;-44
2022/10/25 03:24:38;;;;;;;;;;;18.80;93.30;;;;;;5116389;28;19912;-42
2022/10/25 03:27:03;;;;;;;;;;;18.80;93.30;;;;;;5116821;28;19987;-42
2022/10/25 03:29:29;;;;;;;;;;;18.80;93.40;;;;;;5116423;28;19907;-43
2022/10/25 03:31:54;;;;;;;;;;;18.80;93.40;;;;;;5116408;28;19912;-42
2022/10/25 03:34:20;;;;;;;;;;;18.80;93.40;;;;;;5116642;28;19908;-43
2022/10/25 03:36:45;;;;;;;;;;;18.80;93.50;;;;;;5116096;28;20334;-43
2022/10/25 03:39:10;;;;;;;;;;;18.70;93.50;;;;;;5116282;28;19908;-42
2022/10/25 03:41:36;;;;;;;;;;;18.70;93.50;;;;;;5115877;28;20015;-42
2022/10/25 03:44:01;;;;;;;;;;;18.80;93.50;;;;;;5115803;28;19912;-43
2022/10/25 03:46:27;;;;;;;;;;;18.80;93.50;;;;;;5116101;28;20003;-42
2022/10/25 03:48:52;;;;;;;;;;;18.70;93.50;;;;;;5116128;28;19907;-42
2022/10/25 03:51:18;;;;;;;;;;;18.70;93.50;;;;;;5114474;28;20091;-44
2022/10/25 03:53:43;;;;;;;;;;;18.70;93.50;;;;;;5115892;28;19908;-43
2022/10/25 03:56:09;;;;;;;;;;;18.70;93.50;;;;;;5115956;28;19998;-43
2022/10/25 03:58:34;;;;;;;;;;;18.80;93.50;;;;;;5115991;28;20359;-42
2022/10/25 04:00:59;;;;;;;;;;;18.70;93.50;;;;;;5115779;28;19930;-46
2022/10/25 04:03:25;;;;;;;;;;;18.70;93.50;;;;;;5115347;28;19912;-43
2022/10/25 04:05:50;;;;;;;;;;;18.70;93.50;;;;;;5112734;28;19918;-43
2022/10/25 04:08:16;;;;;;;;;;;18.70;93.40;;;;;;5115093;28;19942;-44
2022/10/25 04:10:41;;;;;;;;;;;18.70;93.40;;;;;;5115495;28;19908;-45
2022/10/25 04:13:07;;;;;;;;;;;18.80;93.40;;;;;;5115510;28;19907;-43
2022/10/25 04:15:32;;;;;;;;;;;18.80;93.40;;;;;;5115492;28;19914;-42
2022/10/25 04:17:58;;;;;;;;;;;18.80;93.40;;;;;;5115214;28;20018;-43
2022/10/25 04:20:23;;;;;;;;;;;18.80;93.40;;;;;;5115105;28;19912;-42
2022/10/25 04:22:52;;;;;;;;;;;18.80;93.40;;;;;;5114811;28;19972;-43
2022/10/25 04:25:18;;;;;;;;;;;18.80;93.30;;;;;;5115072;28;19911;-44
2022/10/25 04:27:43;;;;;;;;;;;18.80;93.30;;;;;;5114817;28;19912;-44
2022/10/25 04:30:09;;;;;;;;;;;18.90;93.30;;;;;;5115236;28;20358;-42
2022/10/25 04:32:35;;;;;;;;;;;18.90;93.30;;;;;;5114835;28;19916;-43
2022/10/25 04:35:00;;;;;;;;;;;18.90;93.30;;;;;;5096763;28;19957;-46
2022/10/25 04:37:25;;;;;;;;;;;18.90;93.30;;;;;;5114920;28;19908;-47
2022/10/25 04:39:51;;;;;;;;;;;18.90;93.30;;;;;;5114749;28;20391;-43
2022/10/25 04:42:18;;;;;;;;;;;18.90;93.30;;;;;;5114344;28;19911;-45
2022/10/25 04:44:43;;;;;;;;;;;18.80;93.30;;;;;;5114405;28;20384;-43
2022/10/25 04:47:09;;;;;;;;;;;18.90;93.30;;;;;;5112510;28;19998;-44
2022/10/25 04:49:34;;;;;;;;;;;18.90;93.30;;;;;;5114832;28;20257;-46
2022/10/25 04:52:00;;;;;;;;;;;18.90;93.30;;;;;;5112977;28;20358;-45
2022/10/25 04:54:25;;;;;;;;;;;18.80;93.40;;;;;;5114403;28;19908;-43
2022/10/25 04:56:51;;;;;;;;;;;18.80;93.30;;;;;;5114424;28;20022;-43
2022/10/25 04:59:16;;;;;;;;;;;18.80;93.40;;;;;;5114196;28;19908;-43
2022/10/25 05:01:42;;;;;;;;;;;18.80;93.40;;;;;;5096043;28;20369;-44
2022/10/25 05:04:07;;;;;;;;;;;18.80;93.40;;;;;;5113665;28;19919;-45
2022/10/25 05:06:32;;;;;;;;;;;18.80;93.40;;;;;;5112779;28;20238;-42
2022/10/25 05:08:58;;;;;;;;;;;18.80;93.50;;;;;;5114124;28;20037;-43
2022/10/25 05:11:24;;;;;;;;;;;18.80;93.50;;;;;;5113974;28;19915;-48
2022/10/25 05:13:49;;;;;;;;;;;18.80;93.50;;;;;;5113963;28;19936;-43
2022/10/25 05:16:19;;;;;;;;;;;18.70;93.50;;;;;;5114214;28;19910;-44
2022/10/25 05:18:44;;;;;;;;;;;18.80;93.50;;;;;;5113984;28;19907;-44
2022/10/25 05:21:10;;;;;;;;;;;18.80;93.50;;;;;;5126931;27;19930;-44
2022/10/25 05:23:35;;;;;;;;;;;18.80;93.50;;;;;;5117599;27;20010;-43
2022/10/25 05:26:01;;;;;;;;;;;18.80;93.50;;;;;;5111871;28;19919;-46
2022/10/25 05:28:26;;;;;;;;;;;18.80;93.50;;;;;;5112013;28;19908;-43
2022/10/25 05:30:52;;;;;;;;;;;18.80;93.50;;;;;;5112254;28;19931;-44
2022/10/25 05:33:17;;;;;;;;;;;18.80;93.60;;;;;;5110305;28;19965;-45
2022/10/25 05:35:43;;;;;;;;;;;18.80;93.60;;;;;;5112778;28;19950;-43
2022/10/25 05:38:08;;;;;;;;;;;18.80;93.60;;;;;;5113269;28;20408;-42
2022/10/25 05:40:33;;;;;;;;;;;18.80;93.50;;;;;;5111390;28;20014;-48
2022/10/25 05:42:59;;;;;;;;;;;18.80;93.50;;;;;;5112261;28;19927;-43
2022/10/25 05:45:24;;;;;;;;;;;18.90;93.50;;;;;;5116620;28;20354;-42
2022/10/25 05:47:50;;;;;;;;;;;18.80;93.50;;;;;;5128435;28;19914;-42
2022/10/25 05:50:15;;;;;;;;;;;18.90;93.50;;;;;;5117773;28;19908;-42
2022/10/25 05:52:42;;;;;;;;;;;18.90;93.50;;;;;;5126345;28;19912;-43
2022/10/25 05:55:07;;;;;;;;;;;18.90;93.50;;;;;;5113400;28;19941;-42
2022/10/25 05:57:33;;;;;;;;;;;19.00;93.50;;;;;;5126171;28;19912;-43
2022/10/25 05:59:59;;;;;;;;;;;19.00;93.50;;;;;;5112843;28;20284;-44
2022/10/25 06:02:24;;;;;;;;;;;19.00;93.50;;;;;;5115159;28;20416;-41
2022/10/25 06:04:50;;;;;;;;;;;19.00;93.50;;;;;;5112616;28;19915;-44
2022/10/25 06:07:15;;;;;;;;;;;19.00;93.40;;;;;;5113936;28;19920;-46
2022/10/25 06:09:40;;;;;;;;;;;19.00;93.40;;;;;;5093397;28;19925;-45
2022/10/25 06:12:06;;;;;;;;;;;19.00;93.50;;;;;;5111617;28;19934;-46
2022/10/25 06:14:31;;;;;;;;;;;19.00;93.50;;;;;;5113614;28;19908;-43
2022/10/25 06:16:57;;;;;;;;;;;19.00;93.50;;;;;;5126177;27;19927;-42
2022/10/25 06:19:22;;;;;;;;;;;19.00;93.50;;;;;;5127087;27;19907;-43
2022/10/25 06:21:48;;;;;;;;;;;19.00;93.50;;;;;;5117056;28;19994;-42
2022/10/25 06:24:13;;;;;;;;;;;19.00;93.50;;;;;;5117342;28;19912;-42
2022/10/25 06:26:39;;;;;;;;;;;19.00;93.50;;;;;;5116875;28;19908;-46
2022/10/25 06:29:04;;;;;;;;;;;19.00;93.50;;;;;;5097954;28;20001;-45
2022/10/25 06:31:30;;;;;;;;;;;19.00;93.50;;;;;;5116733;28;19919;-46
2022/10/25 06:33:57;;;;;;;;;;;19.00;93.50;;;;;;5116964;28;20358;-45
2022/10/25 06:36:23;;;;;;;;;;;19.00;93.50;;;;;;5116760;28;20358;-46
2022/10/25 06:38:49;;;;;;;;;;;19.00;93.50;;;;;;5116916;28;19933;-43
2022/10/25 06:41:15;;;;;;;;;;;19.00;93.50;;;;;;5116666;28;19912;-41
2022/10/25 06:43:41;;;;;;;;;;;19.00;93.50;;;;;;5116476;28;19916;-44
2022/10/25 06:46:08;;;;;;;;;;;19.00;93.50;;;;;;5117369;28;20427;-44
2022/10/25 06:48:34;;;;;;;;;;;19.00;93.50;;;;;;5116757;28;20354;-47
2022/10/25 06:51:08;;;;;;;;;;;19.00;93.50;;;;;;5123464;27;19961;-46
2022/10/25 06:53:34;;;;;;;;;;;19.00;93.60;;;;;;5137514;27;19946;-45
2022/10/25 06:56:00;;;;;;;;;;;19.00;93.60;;;;;;5118855;27;19922;-44
2022/10/25 06:58:27;;;;;;;;;;;19.00;93.60;;;;;;5137373;27;19907;-44
2022/10/25 07:00:53;;;;;;;;;;;19.00;93.60;;;;;;5128140;27;19939;-44
2022/10/25 07:03:19;;;;;;;;;;;19.00;93.60;;;;;;5116394;28;19912;-44
2022/10/25 07:05:45;;;;;;;;;;;19.00;93.60;;;;;;5116739;28;19916;-46
2022/10/25 07:08:10;;;;;;;;;;;19.00;93.60;;;;;;5116962;27;20262;-47
2022/10/25 07:10:36;;;;;;;;;;;19.00;93.60;;;;;;5120598;27;20011;-45
2022/10/25 07:13:01;;;;;;;;;;;19.00;93.60;;;;;;5097625;28;19908;-45
2022/10/25 07:15:27;;;;;;;;;;;19.00;93.60;;;;;;5116404;28;19912;-41
2022/10/25 07:17:53;;;;;;;;;;;19.00;93.70;;;;;;5115155;28;19908;-43
2022/10/25 07:20:19;;;;;;;;;;;19.00;93.70;;;;;;5116493;28;19998;-44
2022/10/25 07:22:45;;;;;;;;;;;19.00;93.70;;;;;;5115254;28;20011;-42
2022/10/25 07:25:10;;;;;;;;;;;19.00;93.70;;;;;;5113502;28;19920;-43
2022/10/25 07:27:36;;;;;;;;;;;19.00;93.70;;;;;;5097284;28;19915;-44
2022/10/25 07:30:01;;;;;;;;;;;19.00;93.70;;;;;;5115050;28;20003;-43
2022/10/25 07:32:27;;;;;;;;;;;19.00;93.70;;;;;;5114946;28;20285;-43
2022/10/25 07:34:52;;;;;;;;;;;19.00;93.70;;;;;;5115225;28;19908;-43
2022/10/25 07:37:17;;;;;;;;;;;19.00;93.70;;;;;;5115608;28;19916;-47
2022/10/25 07:39:43;;;;;;;;;;;19.00;93.70;;;;;;5115176;28;19919;-45
2022/10/25 07:42:08;;;;;;;;;;;19.00;93.70;;;;;;5114885;28;19991;-41
2022/10/25 07:44:34;;;;;;;;;;;19.00;93.70;;;;;;5111137;28;20437;-47
2022/10/25 07:46:59;;;;;;;;;;;19.00;93.70;;;;;;5112573;28;19911;-44
2022/10/25 07:49:25;;;;;;;;;;;18.90;93.70;;;;;;5112915;28;19912;-42
2022/10/25 07:51:50;;;;;;;;;;;18.90;93.60;;;;;;5122657;27;19912;-43
2022/10/25 07:54:16;;;;;;;;;;;18.90;93.60;;;;;;5111023;28;19973;-43
2022/10/25 07:56:41;;;;;;;;;;;18.90;93.60;;;;;;5112106;28;19912;-44
2022/10/25 07:59:07;;;;;;;;;;;19.00;93.60;;;;;;5115687;28;20413;-42
2022/10/25 08:01:32;;;;;;;;;;;18.90;93.60;;;;;;5109676;28;19911;-42
2022/10/25 08:03:57;;;;;;;;;;;18.90;93.60;;;;;;5114983;28;19967;-45
2022/10/25 08:06:23;;;;;;;;;;;19.00;93.60;;;;;;5111320;28;19912;-43
2022/10/25 08:08:49;;;;;;;;;;;19.00;93.60;;;;;;5115050;28;20255;-43
2022/10/25 08:11:14;;;;;;;;;;;19.00;93.60;;;;;;5097287;28;20354;-43
2022/10/25 08:13:40;;;;;;;;;;;19.00;93.70;;;;;;5112829;28;19912;-47
2022/10/25 08:16:06;;;;;;;;;;;19.00;93.70;;;;;;5114950;28;19931;-42
2022/10/25 08:18:31;;;;;;;;;;;18.90;93.70;;;;;;5111421;28;19912;-42
2022/10/25 08:20:59;;;;;;;;;;;18.90;93.70;;;;;;5115221;28;19908;-41
2022/10/25 08:23:24;;;;;;;;;;;19.00;93.70;;;;;;5114016;28;20389;-43
2022/10/25 08:25:50;;;;;;;;;;;19.00;93.70;;;;;;5080043;28;19912;-42
2022/10/25 08:28:15;;;;;;;;;;;19.00;93.70;;;;;;5112188;28;20350;-43
2022/10/25 08:30:41;;;;;;;;;;;19.00;93.70;;;;;;5111623;28;19955;-44
2022/10/25 08:33:06;;;;;;;;;;;19.00;93.70;;;;;;5114653;28;19908;-44
2022/10/25 08:35:32;;;;;;;;;;;19.00;93.70;;;;;;5112637;28;20002;-47
2022/10/25 08:38:01;;;;;;;;;;;19.00;93.70;;;;;;5114019;28;20388;-50
2022/10/25 08:40:41;;;;;;;;;;;19.00;93.70;;;;;;5113689;28;19912;-43
2022/10/25 08:43:16;;;;;;;;;;;19.00;93.70;;;;;;5095978;28;19912;-45
2022/10/25 08:46:12;;;;;;;;;;;19.00;93.70;;;;;;5114944;28;20266;-48
2022/10/25 08:48:43;;;;;;;;;;;19.00;93.70;;;;;;5092885;28;19911;-46
2022/10/25 08:51:24;;;;;;;;;;;19.00;93.80;;;;;;5122207;27;19912;-44
2022/10/25 08:53:50;;;;;;;;;;;19.00;93.80;;;;;;5120297;27;19919;-43
2022/10/25 08:56:17;;;;;;;;;;;19.00;93.80;;;;;;5112572;28;19912;-44
2022/10/25 08:58:50;;;;;;;;;;;19.00;93.80;;;;;;5114293;28;19951;-44
2022/10/25 09:01:19;;;;;;;;;;;19.00;93.80;;;;;;5112706;28;19916;-43
2022/10/25 09:03:44;;;;;;;;;;;19.00;93.80;;;;;;5110529;28;20370;-42
2022/10/25 09:06:27;;;;;;;;;;;19.00;93.80;;;;;;5113144;28;19916;-48
2022/10/25 09:09:05;;;;;;;;;;;19.00;93.80;;;;;;5094009;28;19951;-42
2022/10/25 09:11:36;;;;;;;;;;;19.00;93.80;;;;;;5114061;28;19908;-45
2022/10/25 09:14:06;;;;;;;;;;;19.00;93.80;;;;;;5095463;28;20323;-42
2022/10/25 09:16:48;;;;;;;;;;;19.00;93.80;;;;;;5114009;28;19908;-43
2022/10/25 09:19:24;;;;;;;;;;;19.00;93.80;;;;;;5112883;28;19912;-44
2022/10/25 09:21:50;;;;;;;;;;;19.00;93.80;;;;;;5114342;28;19908;-46
2022/10/25 09:24:23;;;;;;;;;;;19.00;93.80;;;;;;5113421;28;19915;-44
2022/10/25 09:26:58;;;;;;;;;;;19.00;93.80;;;;;;5112416;28;19912;-43
2022/10/25 09:29:27;;;;;;;;;;;19.00;93.80;;;;;;5113471;28;19908;-46
2022/10/25 09:31:57;;;;;;;;;;;19.00;93.90;;;;;;5111750;28;19925;-42
2022/10/25 09:34:23;;;;;;;;;;;19.00;93.80;;;;;;5113923;28;19914;-53
2022/10/25 09:36:56;;;;;;;;;;;19.00;93.80;;;;;;5113411;28;19908;-42
2022/10/25 09:39:35;;;;;;;;;;;19.00;93.80;;;;;;5113660;28;19972;-45
2022/10/25 09:42:02;;;;;;;;;;;19.00;94.10;;;;;;5114058;28;19983;-54
2022/10/25 09:44:27;;;;;;;;;;;19.00;93.80;;;;;;5111614;28;19919;-46
2022/10/25 09:46:55;;;;;;;;;;;19.00;93.80;;;;;;5094519;28;19964;-45
2022/10/25 09:49:28;;;;;;;;;;;19.00;93.80;;;;;;5112795;28;19964;-46
2022/10/25 09:51:56;;;;;;;;;;;19.00;93.80;;;;;;5116364;27;19911;-45
2022/10/25 09:54:42;;;;;;;;;;;19.00;93.80;;;;;;5117172;28;19912;-46
2022/10/25 09:57:07;;;;;;;;;;;19.00;93.80;;;;;;5073997;28;19912;-46
2022/10/25 09:59:33;;;;;;;;;;;19.10;93.90;;;;;;5096086;28;19919;-43
2022/10/25 10:01:58;;;;;;;;;;;19.00;93.90;;;;;;5112636;28;20355;-43
2022/10/25 10:04:37;;;;;;;;;;;19.10;93.90;;;;;;5114431;28;19923;-45
2022/10/25 10:07:14;;;;;;;;;;;19.00;93.90;;;;;;5100351;28;19927;-47
2022/10/25 10:09:41;;;;;;;;;;;19.00;93.90;;;;;;5098895;28;20270;-46
2022/10/25 10:12:09;;;;;;;;;;;19.00;93.90;;;;;;5096847;28;19923;-47
2022/10/25 10:14:39;;;;;;;;;;;19.00;93.90;;;;;;5116594;28;19916;-45
2022/10/25 10:17:05;;;;;;;;;;;19.00;93.90;;;;;;5114514;28;19927;-44
2022/10/25 10:19:31;;;;;;;;;;;19.00;93.90;;;;;;5117065;28;20287;-45
2022/10/25 10:22:01;;;;;;;;;;;19.00;93.90;;;;;;5115718;28;20002;-44
2022/10/25 10:24:37;;;;;;;;;;;19.00;93.90;;;;;;5116662;28;19923;-48
2022/10/25 10:27:07;;;;;;;;;;;19.00;93.90;;;;;;5114889;28;19920;-47
2022/10/25 10:29:36;;;;;;;;;;;19.00;93.90;;;;;;5116593;28;20011;-47
2022/10/25 10:32:05;;;;;;;;;;;19.00;93.80;;;;;;5114351;28;19912;-44
2022/10/25 10:34:41;;;;;;;;;;;19.00;93.80;;;;;;5112674;28;19922;-42
2022/10/25 10:37:14;;;;;;;;;;;19.00;93.80;;;;;;5114077;28;20482;-47
2022/10/25 10:40:09;;;;;;;;;;;19.00;93.80;;;;;;5101968;28;19919;-46
2022/10/25 10:42:36;;;;;;;;;;;19.00;93.80;;;;;;5098315;28;20313;-43
2022/10/25 10:45:06;;;;;;;;;;;19.00;93.80;;;;;;5114980;28;19947;-44
2022/10/25 10:47:33;;;;;;;;;;;19.00;93.80;;;;;;5114274;28;19927;-46
2022/10/25 10:49:59;;;;;;;;;;;19.00;93.80;;;;;;5113291;28;19912;-47
2022/10/25 10:52:28;;;;;;;;;;;19.00;93.80;;;;;;5118653;27;20014;-45
2022/10/25 10:54:54;;;;;;;;;;;19.00;93.80;;;;;;5100805;27;20006;-46
2022/10/25 10:57:38;;;;;;;;;;;19.00;93.80;;;;;;5101903;28;19935;-46
2022/10/25 11:00:04;;;;;;;;;;;19.00;93.80;;;;;;5116485;28;19911;-45
2022/10/25 11:02:39;;;;;;;;;;;19.00;93.80;;;;;;5115400;28;19938;-46
2022/10/25 11:05:17;;;;;;;;;;;19.00;93.80;;;;;;5115797;28;19922;-46
2022/10/25 11:07:42;;;;;;;;;;;19.00;93.80;;;;;;5116152;28;20354;-43
2022/10/25 11:10:14;;;;;;;;;;;19.00;93.70;;;;;;5114190;28;19918;-42
2022/10/25 11:12:40;;;;;;;;;;;19.00;93.80;;;;;;5114391;28;20362;-49
2022/10/25 11:15:12;;;;;;;;;;;19.00;93.70;;;;;;5115236;28;19919;-45
2022/10/25 11:17:41;;;;;;;;;;;19.00;93.70;;;;;;5115396;28;19920;-41
2022/10/25 11:20:15;;;;;;;;;;;19.00;93.70;;;;;;5116202;28;20415;-48
2022/10/25 11:22:47;;;;;;;;;;;19.00;93.70;;;;;;5115192;28;19955;-51
2022/10/25 11:25:15;;;;;;;;;;;19.00;93.80;;;;;;5115856;28;19952;-47
2022/10/25 11:27:59;;;;;;;;;;;19.00;93.80;;;;;;5115373;28;19978;-47
2022/10/25 11:30:28;;;;;;;;;;;19.00;93.80;;;;;;5115213;28;19923;-45
2022/10/25 11:33:12;;;;;;;;;;;19.00;93.80;;;;;;5115012;28;19912;-49
2022/10/25 11:35:43;;;;;;;;;;;19.00;93.80;;;;;;5112465;28;19920;-45
2022/10/25 11:38:19;;;;;;;;;;;19.00;93.80;;;;;;5116108;28;19908;-46
2022/10/25 11:40:51;;;;;;;;;;;19.00;93.80;;;;;;5113971;28;19916;-44
2022/10/25 11:43:35;;;;;;;;;;;19.00;93.80;;;;;;5102087;28;19916;-42
2022/10/25 11:46:13;;;;;;;;;;;19.00;93.90;;;;;;5114683;28;19922;-44
2022/10/25 11:48:44;;;;;;;;;;;19.00;93.90;;;;;;5112982;28;19911;-44
2022/10/25 11:51:13;;;;;;;;;;;19.00;93.90;;;;;;5121861;27;19907;-48
2022/10/25 11:53:56;;;;;;;;;;;19.00;93.90;;;;;;5113549;28;20015;-44
2022/10/25 11:56:24;;;;;;;;;;;19.00;93.90;;;;;;5114838;28;19915;-46
2022/10/25 11:58:56;;;;;;;;;;;19.00;93.90;;;;;;5115326;28;19991;-42
2022/10/25 12:01:39;;;;;;;;;;;19.00;93.90;;;;;;5114621;27;19912;-46
2022/10/25 12:04:19;;;;;;;;;;;19.00;93.90;;;;;;5112435;28;20381;-43
2022/10/25 12:06:52;;;;;;;;;;;19.00;94.20;;;;;;5113488;28;21596;-43
2022/10/25 12:09:18;;;;;;;;;;;19.00;93.90;;;;;;5115295;28;19915;-47
2022/10/25 12:11:49;;;;;;;;;;;19.00;94.00;;;;;;5097086;28;19908;-43
2022/10/25 12:14:18;;;;;;;;;;;19.00;94.00;;;;;;5115108;28;20108;-42
2022/10/25 12:16:44;;;;;;;;;;;19.00;94.00;;;;;;5113404;28;19912;-49
2022/10/25 12:19:09;;;;;;;;;;;19.00;94.00;;;;;;5096162;28;20420;-42
2022/10/25 12:21:48;;;;;;;;;;;19.00;94.00;;;;;;5112707;28;19916;-42
2022/10/25 12:24:17;;;;;;;;;;;19.00;94.00;;;;;;5113864;28;19927;-44
2022/10/25 12:26:43;;;;;;;;;;;19.00;94.00;;;;;;5115016;28;19995;-42
2022/10/25 12:29:18;;;;;;;;;;;19.00;94.00;;;;;;5112720;28;19957;-44
2022/10/25 12:31:53;;;;;;;;;;;19.00;94.00;;;;;;5111866;28;19935;-42
2022/10/25 12:34:21;;;;;;;;;;;19.00;94.00;;;;;;5112751;28;19954;-42
2022/10/25 12:36:49;;;;;;;;;;;19.00;94.00;;;;;;5113772;28;20366;-43
2022/10/25 12:39:18;;;;;;;;;;;19.00;94.00;;;;;;5112883;28;19923;-43
2022/10/25 12:41:45;;;;;;;;;;;19.00;94.00;;;;;;5095155;28;19916;-42
2022/10/25 12:44:30;;;;;;;;;;;19.00;94.00;;;;;;5112492;28;20370;-42
2022/10/25 12:47:01;;;;;;;;;;;19.00;94.00;;;;;;5114487;28;19955;-42
2022/10/25 12:49:27;;;;;;;;;;;19.10;94.10;;;;;;5112989;28;20357;-42
2022/10/25 12:51:52;;;;;;;;;;;19.00;94.00;;;;;;5115166;27;19919;-41
2022/10/25 12:54:23;;;;;;;;;;;19.00;94.00;;;;;;5111629;28;20362;-42
2022/10/25 12:56:55;;;;;;;;;;;19.00;94.10;;;;;;5113279;28;19912;-43
2022/10/25 12:59:39;;;;;;;;;;;19.00;94.10;;;;;;5112564;28;19926;-46
2022/10/25 13:02:23;;;;;;;;;;;19.00;94.30;;;;;;5110354;28;19911;-48
2022/10/25 13:04:48;;;;;;;;;;;19.00;94.00;;;;;;5114260;28;19981;-43
2022/10/25 13:07:15;;;;;;;;;;;19.00;94.10;;;;;;5114282;28;20370;-44
2022/10/25 13:09:40;;;;;;;;;;;19.00;94.10;;;;;;5109251;28;20358;-43
2022/10/25 13:12:06;;;;;;;;;;;19.00;94.10;;;;;;5112941;28;19926;-42
2022/10/25 13:14:51;;;;;;;;;;;19.00;94.10;;;;;;5113208;28;19918;-42
2022/10/25 13:17:17;;;;;;;;;;;19.00;94.10;;;;;;5113554;28;19908;-41
2022/10/25 13:19:48;;;;;;;;;;;19.00;94.10;;;;;;5113766;28;19998;-42
2022/10/25 13:22:33;;;;;;;;;;;19.00;94.10;;;;;;5114179;28;19998;-42
2022/10/25 13:25:00;;;;;;;;;;;19.00;94.10;;;;;;5107196;28;20299;-42
2022/10/25 13:27:27;;;;;;;;;;;19.10;94.10;;;;;;5113459;28;19919;-42
2022/10/25 13:30:04;;;;;;;;;;;19.00;94.10;;;;;;5111589;28;19975;-42
2022/10/25 13:32:33;;;;;;;;;;;19.00;94.10;;;;;;5094899;28;20002;-42
2022/10/25 13:35:01;;;;;;;;;;;19.00;94.10;;;;;;5113111;28;20324;-42
2022/10/25 13:37:29;;;;;;;;;;;19.10;94.10;;;;;;5114113;28;19915;-44
2022/10/25 13:39:56;;;;;;;;;;;19.00;94.10;;;;;;5111961;28;20290;-43
2022/10/25 13:42:31;;;;;;;;;;;19.00;94.10;;;;;;5108917;28;19926;-43
2022/10/25 13:45:03;;;;;;;;;;;19.10;94.10;;;;;;5092828;28;19919;-43
2022/10/25 13:47:34;;;;;;;;;;;19.00;94.10;;;;;;5107956;28;19912;-42
2022/10/25 13:50:00;;;;;;;;;;;19.00;94.10;;;;;;5109671;28;20278;-43
2022/10/25 13:52:28;;;;;;;;;;;19.00;94.10;;;;;;5111822;28;20304;-42
2022/10/25 13:54:55;;;;;;;;;;;19.00;94.10;;;;;;5110218;28;20370;-41
2022/10/25 13:57:39;;;;;;;;;;;19.00;94.10;;;;;;5111444;28;19919;-43
2022/10/25 14:00:09;;;;;;;;;;;19.10;94.20;;;;;;5105146;28;19915;-42
2022/10/25 14:02:55;;;;;;;;;;;19.00;94.20;;;;;;5111269;28;19924;-41
2022/10/25 14:05:39;;;;;;;;;;;19.00;94.20;;;;;;5111209;28;19966;-46
2022/10/25 14:08:10;;;;;;;;;;;19.10;94.20;;;;;;5112719;28;20044;-43
2022/10/25 14:10:35;;;;;;;;;;;19.10;94.20;;;;;;5093713;28;19954;-42
2022/10/25 14:13:06;;;;;;;;;;;19.00;94.20;;;;;;5111837;28;19947;-43
2022/10/25 14:15:38;;;;;;;;;;;19.00;94.20;;;;;;5112636;28;19908;-42
2022/10/25 14:18:10;;;;;;;;;;;19.00;94.20;;;;;;5108653;28;19919;-42
2022/10/25 14:20:36;;;;;;;;;;;19.00;94.20;;;;;;5108519;28;20208;-42
2022/10/25 14:23:04;;;;;;;;;;;19.10;94.20;;;;;;5112431;28;19924;-43
2022/10/25 14:25:38;;;;;;;;;;;19.00;94.20;;;;;;5113605;28;19956;-42